Time;durP1;ratioP1;P1;durP2;ratioP2;P2;SDS_P1;SDS_P2;PMS_P1;PMS_P2;Temp;Humidity;BMP_temperature;BMP_pressure;BME280_temperature;BME280_humidity;BME280_pressure;Samples;Min_cycle;Max_cycle;Signal;HPM_P1;HPM_P2
2021/08/01 00:00:43;;;;;;;;;4.50;4.50;;;;;19.31;53.36;100419.97;5017045;28;62822;-61
2021/08/01 00:03:08;;;;;;;;;3.50;3.50;;;;;19.25;53.16;100413.63;5017802;28;45279;-59
2021/08/01 00:05:34;;;;;;;;;3.50;3.50;;;;;19.21;53.54;100417.69;5017782;28;45645;-61
2021/08/01 00:07:59;;;;;;;;;4.00;4.00;;;;;19.16;53.57;100413.94;5016669;28;72052;-61
2021/08/01 00:10:24;;;;;;;;;5.50;4.75;;;;;19.11;53.47;100410.03;5016825;28;68306;-61
2021/08/01 00:12:50;;;;;;;;;5.25;5.00;;;;;19.06;53.67;100408.97;5017742;28;45537;-61
2021/08/01 00:15:15;;;;;;;;;11.25;8.00;;;;;18.99;53.85;100408.94;5016509;28;74978;-60
2021/08/01 00:17:41;;;;;;;;;5.50;4.50;;;;;18.90;54.07;100407.41;5016656;28;71718;-61
2021/08/01 00:20:07;;;;;;;;;8.00;4.50;;;;;18.82;54.22;100408.38;5017815;28;45440;-61
2021/08/01 00:22:32;;;;;;;;;5.50;4.75;;;;;18.73;54.50;100407.69;5016162;28;49152;-61
2021/08/01 00:24:57;;;;;;;;;4.00;4.00;;;;;18.66;54.73;100401.50;5016131;28;75670;-61
2021/08/01 00:27:23;;;;;;;;;5.25;5.25;;;;;18.59;55.06;100409.44;5016676;28;64884;-61
2021/08/01 00:29:48;;;;;;;;;6.50;6.50;;;;;18.52;55.27;100406.72;5015250;28;66956;-61
2021/08/01 00:32:13;;;;;;;;;6.00;4.75;;;;;18.47;55.30;100413.63;5016828;28;55989;-61
2021/08/01 00:34:39;;;;;;;;;6.75;5.50;;;;;18.42;55.50;100414.22;5016435;28;73336;-61
2021/08/01 00:37:04;;;;;;;;;4.50;4.50;;;;;18.36;55.70;100413.13;5016202;28;72178;-60
2021/08/01 00:39:30;;;;;;;;;5.50;4.75;;;;;18.33;55.85;100408.19;5017234;28;45264;-61
2021/08/01 00:41:56;;;;;;;;;6.00;6.00;;;;;18.27;55.97;100411.63;5017322;28;45292;-60
2021/08/01 00:44:21;;;;;;;;;5.25;4.00;;;;;18.20;56.44;100416.88;5016710;28;51510;-61
2021/08/01 00:46:46;;;;;;;;;5.00;4.75;;;;;18.14;56.56;100420.28;5016392;28;65619;-60
2021/08/01 00:49:12;;;;;;;;;6.25;4.50;;;;;18.07;56.55;100417.56;5017176;28;45311;-60
2021/08/01 00:51:37;;;;;;;;;5.00;5.00;;;;;18.01;56.81;100407.66;5017060;28;45821;-60
2021/08/01 00:54:03;;;;;;;;;5.00;5.00;;;;;17.99;56.78;100414.16;5014764;28;75808;-61
2021/08/01 00:56:29;;;;;;;;;7.25;6.75;;;;;17.94;56.84;100412.91;5016983;28;45259;-61
2021/08/01 00:58:55;;;;;;;;;6.50;6.00;;;;;17.92;57.11;100414.91;5016455;28;45417;-61
2021/08/01 01:01:24;;;;;;;;;5.75;5.00;;;;;17.89;57.41;100419.78;5016831;28;45268;-61
2021/08/01 01:04:11;;;;;;;;;5.75;5.00;;;;;17.85;57.39;100410.53;5016447;28;50759;-60
2021/08/01 01:07:09;;;;;;;;;5.50;4.50;;;;;17.82;57.49;100414.38;5015862;28;45422;-61
2021/08/01 01:09:37;;;;;;;;;3.75;3.75;;;;;17.77;57.76;100412.28;5016023;28;45327;-61
2021/08/01 01:12:05;;;;;;;;;4.75;4.00;;;;;17.75;57.58;100418.81;5016899;28;45392;-60
2021/08/01 01:14:30;;;;;;;;;5.50;4.25;;;;;17.72;57.86;100427.97;5015318;28;46207;-60
2021/08/01 01:17:03;;;;;;;;;5.50;5.25;;;;;17.73;57.83;100423.47;4999041;28;45398;-61
2021/08/01 01:19:40;;;;;;;;;3.00;3.00;;;;;17.70;57.99;100421.19;4999094;28;45333;-61
2021/08/01 01:22:13;;;;;;;;;5.75;5.00;;;;;17.65;57.78;100419.91;5016719;28;45599;-61
2021/08/01 01:24:39;;;;;;;;;6.25;5.25;;;;;17.62;58.26;100416.81;4999138;28;46558;-61
2021/08/01 01:27:10;;;;;;;;;4.00;3.00;;;;;17.59;58.33;100419.84;5014750;28;62549;-61
2021/08/01 01:29:57;;;;;;;;;4.75;4.75;;;;;17.56;58.60;100410.38;5016696;28;45477;-60
2021/08/01 01:32:30;;;;;;;;;7.25;5.75;;;;;17.53;58.59;100413.41;5015269;28;45597;-61
2021/08/01 01:35:11;;;;;;;;;6.00;3.25;;;;;17.48;58.58;100419.28;5015073;28;47261;-61
2021/08/01 01:37:37;;;;;;;;;5.00;4.00;;;;;17.44;58.69;100417.19;4999073;28;46320;-61
2021/08/01 01:40:02;;;;;;;;;6.00;5.00;;;;;17.42;58.96;100419.22;4997693;28;66395;-61
2021/08/01 01:42:28;;;;;;;;;5.00;5.00;;;;;17.40;59.10;100415.91;5014733;28;45310;-61
2021/08/01 01:44:53;;;;;;;;;7.25;5.25;;;;;17.42;59.15;100424.53;5014977;28;46099;-61
2021/08/01 01:47:19;;;;;;;;;7.25;6.50;;;;;17.42;59.01;100421.88;4997493;28;73230;-61
2021/08/01 01:49:44;;;;;;;;;6.50;6.00;;;;;17.41;59.07;100417.56;4997702;28;69223;-61
2021/08/01 01:52:10;;;;;;;;;10.50;6.25;;;;;17.37;59.11;100419.75;4998692;28;45516;-62
2021/08/01 01:54:36;;;;;;;;;10.50;9.00;;;;;17.38;59.33;100420.59;5016191;28;45905;-61
2021/08/01 01:57:01;;;;;;;;;7.25;7.00;;;;;17.33;59.31;100418.47;5014983;28;45304;-61
2021/08/01 01:59:26;;;;;;;;;8.75;8.50;;;;;17.29;59.30;100423.34;4997377;28;68308;-61
2021/08/01 02:01:52;;;;;;;;;9.00;9.00;;;;;17.30;59.78;100424.97;5015118;28;70306;-60
2021/08/01 02:04:17;;;;;;;;;9.50;8.00;;;;;17.30;59.59;100421.50;5015082;28;70734;-65
2021/08/01 02:06:42;;;;;;;;;12.25;9.00;;;;;17.27;59.72;100416.53;5015097;28;72481;-61
2021/08/01 02:09:14;;;;;;;;;12.75;11.75;;;;;17.24;59.67;100415.09;5013913;28;69387;-60
2021/08/01 02:12:02;;;;;;;;;13.25;8.00;;;;;17.18;60.07;100418.47;5015020;28;45468;-61
2021/08/01 02:14:31;;;;;;;;;12.50;8.00;;;;;17.14;59.76;100412.72;5014805;28;46350;-61
2021/08/01 02:16:58;;;;;;;;;11.00;8.50;;;;;17.11;59.82;100414.91;4998613;28;45800;-61
2021/08/01 02:19:23;;;;;;;;;14.00;11.00;;;;;17.09;60.19;100419.56;4998277;28;45305;-61
2021/08/01 02:21:49;;;;;;;;;9.00;7.00;;;;;17.06;59.72;100410.97;5013808;28;69275;-60
2021/08/01 02:24:14;;;;;;;;;8.00;7.00;;;;;17.06;59.94;100415.47;5014388;28;45335;-60
2021/08/01 02:26:40;;;;;;;;;10.25;9.00;;;;;17.05;60.28;100409.31;4997585;28;45369;-62
2021/08/01 02:29:05;;;;;;;;;11.25;11.25;;;;;17.02;60.22;100407.00;5014694;28;45342;-60
2021/08/01 02:31:31;;;;;;;;;9.00;8.75;;;;;16.99;60.28;100415.34;5014476;28;49114;-60
2021/08/01 02:33:56;;;;;;;;;10.50;10.25;;;;;16.95;60.70;100413.22;5015608;28;45295;-60
2021/08/01 02:36:23;;;;;;;;;14.25;10.50;;;;;16.92;60.55;100417.06;4997129;28;69813;-61
2021/08/01 02:38:51;;;;;;;;;11.25;9.00;;;;;16.91;60.74;100418.88;5015783;28;45418;-62
2021/08/01 02:41:21;;;;;;;;;7.75;6.00;;;;;16.92;60.64;100414.41;5014456;28;46545;-61
2021/08/01 02:43:47;;;;;;;;;10.75;8.75;;;;;16.92;60.87;100414.41;5014276;28;45407;-61
2021/08/01 02:46:12;;;;;;;;;12.00;9.50;;;;;16.89;60.55;100409.47;5014087;28;51615;-61
2021/08/01 02:48:38;;;;;;;;;10.75;8.50;;;;;16.86;60.52;100404.50;4997524;28;49140;-61
2021/08/01 02:51:04;;;;;;;;;7.50;7.00;;;;;16.82;60.82;100401.38;4997091;28;66897;-60
2021/08/01 02:53:30;;;;;;;;;9.00;8.00;;;;;16.81;60.27;100404.22;5016119;28;45317;-61
2021/08/01 02:55:57;;;;;;;;;11.50;7.75;;;;;16.76;60.97;100399.44;5018950;28;45235;-60
2021/08/01 02:58:23;;;;;;;;;12.00;7.00;;;;;16.70;61.20;100402.81;5016979;28;45316;-61
2021/08/01 03:00:48;;;;;;;;;9.50;9.00;;;;;16.64;61.19;100401.72;5001051;28;46396;-61
2021/08/01 03:03:17;;;;;;;;;10.75;8.00;;;;;16.60;61.45;100411.88;5001058;28;45353;-61
2021/08/01 03:05:43;;;;;;;;;9.75;8.00;;;;;16.58;61.10;100413.03;5000043;28;72154;-61
2021/08/01 03:08:12;;;;;;;;;12.50;9.00;;;;;16.55;61.29;100411.59;5017708;28;45419;-60
2021/08/01 03:10:41;;;;;;;;;9.50;9.00;;;;;16.54;61.49;100411.75;5018652;28;45625;-61
2021/08/01 03:13:07;;;;;;;;;9.50;7.50;;;;;16.53;61.52;100410.09;5018471;28;47321;-61
2021/08/01 03:15:32;;;;;;;;;9.75;8.75;;;;;16.53;61.61;100405.63;5017601;28;72185;-60
2021/08/01 03:17:57;;;;;;;;;9.25;7.25;;;;;16.54;61.58;100404.63;5017759;28;65712;-61
2021/08/01 03:20:23;;;;;;;;;9.50;9.25;;;;;16.54;61.62;100406.44;5017599;28;69452;-61
2021/08/01 03:22:48;;;;;;;;;7.75;7.50;;;;;16.54;61.98;100406.44;5017392;28;71851;-62
2021/08/01 03:25:13;;;;;;;;;8.00;7.00;;;;;16.55;61.90;100414.22;5017384;28;73331;-61
2021/08/01 03:27:39;;;;;;;;;9.50;7.00;;;;;16.56;61.71;100407.09;5017631;28;66287;-62
2021/08/01 03:30:04;;;;;;;;;8.50;7.25;;;;;16.56;61.56;100394.66;5017734;28;64425;-61
2021/08/01 03:32:30;;;;;;;;;9.25;7.00;;;;;16.58;61.61;100403.28;5018022;28;51056;-60
2021/08/01 03:34:55;;;;;;;;;10.25;6.00;;;;;16.59;62.04;100398.78;5017676;28;63703;-61
2021/08/01 03:37:25;;;;;;;;;8.00;6.75;;;;;16.60;62.15;100405.72;5017466;28;67337;-61
2021/08/01 03:39:50;;;;;;;;;9.75;7.25;;;;;16.61;61.75;100402.06;5017195;28;45522;-61
2021/08/01 03:42:16;;;;;;;;;8.25;6.25;;;;;16.62;61.58;100393.13;5017621;28;58643;-61
2021/08/01 03:44:41;;;;;;;;;9.50;6.25;;;;;16.63;61.90;100386.00;5017221;28;68715;-61
2021/08/01 03:47:07;;;;;;;;;8.00;6.75;;;;;16.63;61.53;100393.94;5017354;28;67051;-61
2021/08/01 03:49:32;;;;;;;;;10.00;7.50;;;;;16.62;61.38;100398.41;5017325;28;69124;-61
2021/08/01 03:51:57;;;;;;;;;6.75;6.00;;;;;16.61;61.64;100396.78;5017933;28;45917;-60
2021/08/01 03:54:23;;;;;;;;;7.00;5.75;;;;;16.60;61.09;100400.44;5017925;28;45311;-62
2021/08/01 03:56:48;;;;;;;;;6.50;5.50;;;;;16.59;61.46;100393.47;5016978;28;69382;-61
2021/08/01 03:59:13;;;;;;;;;6.00;6.00;;;;;16.59;61.34;100404.06;5016778;28;69599;-61
2021/08/01 04:01:39;;;;;;;;;7.25;6.00;;;;;16.60;61.44;100411.03;5017747;28;45349;-61
2021/08/01 04:04:05;;;;;;;;;9.25;6.75;;;;;16.59;61.25;100398.78;5017301;28;45346;-62
2021/08/01 04:06:30;;;;;;;;;6.75;5.50;;;;;16.57;61.68;100403.44;5017922;28;45173;-61
2021/08/01 04:08:56;;;;;;;;;7.25;7.00;;;;;16.54;61.69;100398.47;5017985;28;45490;-61
2021/08/01 04:11:21;;;;;;;;;6.25;6.00;;;;;16.51;61.68;100404.13;5017617;28;46154;-61
2021/08/01 04:13:46;;;;;;;;;6.75;6.00;;;;;16.48;61.88;100408.00;5016595;28;72086;-62
2021/08/01 04:16:12;;;;;;;;;7.00;6.50;;;;;16.43;61.93;100397.91;5016977;28;64834;-61
2021/08/01 04:18:37;;;;;;;;;6.75;6.75;;;;;16.44;61.69;100404.03;5016761;28;67809;-60
2021/08/01 04:21:12;;;;;;;;;5.75;5.50;;;;;16.43;61.69;100400.56;5017081;28;58575;-61
2021/08/01 04:23:38;;;;;;;;;6.00;6.00;;;;;16.44;61.87;100396.09;5015888;28;45363;-60
2021/08/01 04:26:04;;;;;;;;;9.00;7.25;;;;;16.46;61.88;100404.69;5017658;28;45284;-61
2021/08/01 04:28:29;;;;;;;;;5.25;5.25;;;;;16.44;61.97;100396.91;5016476;28;45533;-60
2021/08/01 04:30:54;;;;;;;;;6.75;6.75;;;;;16.43;61.60;100397.09;5017445;28;46116;-61
2021/08/01 04:33:20;;;;;;;;;6.25;5.75;;;;;16.43;62.09;100383.84;5016254;28;72066;-61
2021/08/01 04:35:46;;;;;;;;;6.25;4.25;;;;;16.42;61.85;100388.31;5017495;28;45299;-61
2021/08/01 04:38:11;;;;;;;;;8.25;7.00;;;;;16.41;61.96;100401.75;5016433;28;68109;-61
2021/08/01 04:40:37;;;;;;;;;7.00;6.00;;;;;16.40;62.31;100392.97;5016447;28;72429;-61
2021/08/01 04:43:03;;;;;;;;;7.00;6.00;;;;;16.42;62.39;100403.41;5017254;28;45408;-61
2021/08/01 04:45:28;;;;;;;;;6.50;5.75;;;;;16.42;61.81;100395.44;5017265;28;45688;-60
2021/08/01 04:47:53;;;;;;;;;7.00;5.25;;;;;16.40;62.30;100392.97;5016250;28;66394;-61
2021/08/01 04:50:19;;;;;;;;;8.75;6.00;;;;;16.36;62.21;100393.50;5016342;28;63165;-62
2021/08/01 04:52:44;;;;;;;;;4.00;4.00;;;;;16.31;62.65;100392.19;5016017;28;72090;-61
2021/08/01 04:55:10;;;;;;;;;6.00;6.00;;;;;16.29;62.41;100394.19;5016168;28;66355;-61
2021/08/01 04:57:35;;;;;;;;;4.50;4.50;;;;;16.29;62.49;100391.56;5017182;28;46932;-59
2021/08/01 05:00:01;;;;;;;;;7.00;6.00;;;;;16.31;62.68;100388.75;5016710;28;45457;-62
2021/08/01 05:02:26;;;;;;;;;5.25;5.00;;;;;16.34;62.66;100398.16;5016709;28;45990;-61
2021/08/01 05:04:52;;;;;;;;;5.75;5.75;;;;;16.35;62.92;100398.00;5016217;28;64362;-61
2021/08/01 05:07:17;;;;;;;;;6.00;5.25;;;;;16.34;62.64;100396.34;5017025;28;45277;-61
2021/08/01 05:09:43;;;;;;;;;6.50;5.00;;;;;16.34;62.63;100401.63;5015683;28;74456;-60
2021/08/01 05:12:08;;;;;;;;;5.50;5.00;;;;;16.36;62.37;100407.59;5016459;28;51588;-61
2021/08/01 05:14:33;;;;;;;;;8.50;6.50;;;;;16.37;62.37;100397.78;5016819;28;45374;-62
2021/08/01 05:16:59;;;;;;;;;4.75;4.50;;;;;16.37;62.65;100390.69;5014952;28;70553;-61
2021/08/01 05:19:24;;;;;;;;;7.00;6.00;;;;;16.38;62.32;100387.03;5016358;28;53834;-62
2021/08/01 05:21:49;;;;;;;;;6.25;4.25;;;;;16.41;62.25;100391.97;5016648;28;45328;-61
2021/08/01 05:24:15;;;;;;;;;6.75;5.25;;;;;16.44;61.91;100388.13;5015770;28;65877;-61
2021/08/01 05:26:40;;;;;;;;;6.50;5.00;;;;;16.45;62.26;100393.25;5016525;28;45443;-62
2021/08/01 05:29:08;;;;;;;;;5.25;4.75;;;;;16.49;62.43;100399.03;5016405;28;46082;-61
2021/08/01 05:31:33;;;;;;;;;7.75;5.50;;;;;16.53;62.34;100395.03;5016630;28;45331;-61
2021/08/01 05:33:58;;;;;;;;;6.25;5.00;;;;;16.54;62.33;100399.31;5015874;28;62120;-62
2021/08/01 05:36:24;;;;;;;;;6.00;5.00;;;;;16.56;62.66;100401.78;5016502;28;45463;-61
2021/08/01 05:38:49;;;;;;;;;6.00;6.00;;;;;16.58;62.92;100400.63;5015873;28;60070;-62
2021/08/01 05:41:18;;;;;;;;;4.75;4.75;;;;;16.63;63.28;100405.38;5015722;28;61833;-62
2021/08/01 05:43:43;;;;;;;;;6.00;5.50;;;;;16.68;62.84;100402.19;5016609;28;45383;-61
2021/08/01 05:46:10;;;;;;;;;8.75;6.75;;;;;16.75;62.45;100398.63;5016135;28;45428;-61
2021/08/01 05:48:35;;;;;;;;;6.00;6.00;;;;;16.82;62.59;100400.56;5015881;28;45395;-61
2021/08/01 05:51:05;;;;;;;;;8.25;7.00;;;;;16.90;62.59;100405.81;5015242;28;72057;-61
2021/08/01 05:53:31;;;;;;;;;6.00;5.25;;;;;17.00;62.43;100410.88;5016462;28;45354;-61
2021/08/01 05:55:56;;;;;;;;;6.00;6.00;;;;;17.08;61.95;100412.59;5016025;28;45466;-61
2021/08/01 05:58:21;;;;;;;;;6.75;6.00;;;;;17.17;61.64;100416.81;5014857;28;75674;-61
2021/08/01 06:00:47;;;;;;;;;6.75;5.25;;;;;17.26;61.61;100420.22;5015256;28;70933;-62
2021/08/01 06:03:12;;;;;;;;;7.50;6.00;;;;;17.33;61.26;100411.34;5015192;28;68489;-61
2021/08/01 06:05:38;;;;;;;;;6.25;6.00;;;;;17.42;61.25;100409.41;5015294;28;61982;-62
2021/08/01 06:08:03;;;;;;;;;4.00;4.00;;;;;17.52;61.23;100413.63;5015412;28;65720;-61
2021/08/01 06:10:28;;;;;;;;;5.00;4.00;;;;;17.61;61.24;100415.97;5015796;28;50490;-61
2021/08/01 06:12:54;;;;;;;;;9.00;5.00;;;;;17.68;60.85;100415.25;5015204;28;65456;-61
2021/08/01 06:15:19;;;;;;;;;6.50;5.00;;;;;17.76;60.84;100407.97;5015064;28;70833;-61
2021/08/01 06:17:45;;;;;;;;;5.50;4.75;;;;;17.84;60.78;100415.03;5015755;28;45523;-60
2021/08/01 06:20:11;;;;;;;;;6.75;4.00;;;;;17.91;60.49;100418.59;5014978;28;70145;-61
2021/08/01 06:22:37;;;;;;;;;4.75;3.00;;;;;17.99;60.30;100414.16;5016134;28;45350;-61
2021/08/01 06:25:02;;;;;;;;;4.75;4.75;;;;;18.06;59.72;100415.91;5015002;28;68579;-61
2021/08/01 06:27:27;;;;;;;;;3.25;3.00;;;;;18.15;59.48;100421.13;5017409;28;45408;-61
2021/08/01 06:29:53;;;;;;;;;2.75;2.00;;;;;18.21;59.35;100426.50;5018837;28;52958;-61
2021/08/01 06:32:18;;;;;;;;;2.00;2.00;;;;;18.31;58.94;100418.19;5018250;28;69068;-61
2021/08/01 06:34:44;;;;;;;;;3.75;3.75;;;;;18.39;58.92;100427.88;5018153;28;69522;-61
2021/08/01 06:37:09;;;;;;;;;3.00;3.00;;;;;18.48;58.91;100429.41;5019015;28;45883;-61
2021/08/01 06:39:34;;;;;;;;;3.75;2.25;;;;;18.61;58.61;100435.84;5001189;28;45416;-60
2021/08/01 06:42:00;;;;;;;;;4.25;4.00;;;;;18.71;58.09;100435.53;5019330;28;45398;-61
2021/08/01 06:44:25;;;;;;;;;3.00;3.00;;;;;18.82;58.28;100435.81;5017867;28;67335;-61
2021/08/01 06:46:50;;;;;;;;;3.00;2.00;;;;;18.95;57.86;100439.59;5018134;28;72531;-60
2021/08/01 06:49:16;;;;;;;;;4.00;2.00;;;;;19.07;57.63;100443.41;5018183;28;63942;-60
2021/08/01 06:51:42;;;;;;;;;4.00;2.00;;;;;19.21;56.98;100439.00;5017876;28;68494;-60
2021/08/01 06:54:07;;;;;;;;;4.00;3.00;;;;;19.32;56.81;100442.13;5018934;28;45213;-60
2021/08/01 06:56:33;;;;;;;;;5.00;3.00;;;;;19.42;56.68;100440.75;5018364;28;53835;-61
2021/08/01 06:58:58;;;;;;;;;2.75;2.75;;;;;19.55;56.70;100445.31;5017504;28;71630;-61
2021/08/01 07:01:24;;;;;;;;;4.25;2.00;;;;;19.67;56.13;100455.41;5017884;28;69520;-60
2021/08/01 07:03:49;;;;;;;;;3.00;2.25;;;;;19.78;55.26;100444.19;5018871;28;45462;-60
2021/08/01 07:06:14;;;;;;;;;3.25;2.00;;;;;19.88;54.78;100446.47;5017488;28;75551;-60
2021/08/01 07:08:40;;;;;;;;;4.00;2.00;;;;;19.99;54.80;100445.09;5018531;28;45346;-60
2021/08/01 07:11:05;;;;;;;;;3.75;2.50;;;;;20.08;54.62;100438.56;5017747;28;63911;-61
2021/08/01 07:13:30;;;;;;;;;2.25;2.25;;;;;20.20;54.27;100443.31;5017907;28;60198;-61
2021/08/01 07:16:02;;;;;;;;;4.25;4.00;;;;;20.31;54.24;100448.06;5018364;28;46324;-61
2021/08/01 07:18:28;;;;;;;;;2.00;2.00;;;;;20.44;54.09;100452.59;5018540;28;45374;-60
2021/08/01 07:20:53;;;;;;;;;3.25;2.25;;;;;20.57;53.54;100455.28;5018399;28;45776;-60
2021/08/01 07:23:18;;;;;;;;;2.00;2.00;;;;;20.67;53.07;100462.03;5017674;28;70569;-61
2021/08/01 07:25:44;;;;;;;;;3.75;3.00;;;;;20.77;52.70;100454.47;5017300;28;74525;-60
2021/08/01 07:28:09;;;;;;;;;3.00;2.50;;;;;20.90;52.90;100459.00;5017986;28;54808;-61
2021/08/01 07:30:34;;;;;;;;;3.50;2.50;;;;;21.00;52.14;100458.56;5017387;28;67741;-60
2021/08/01 07:33:00;;;;;;;;;3.25;3.00;;;;;21.11;51.87;100468.63;5017270;28;70408;-61
2021/08/01 07:35:25;;;;;;;;;3.00;0.00;;;;;21.24;51.72;100465.09;5018109;28;45810;-61
2021/08/01 07:37:51;;;;;;;;;2.00;2.00;;;;;21.34;51.44;100467.34;5018153;28;45328;-60
2021/08/01 07:40:16;;;;;;;;;5.00;4.00;;;;;21.45;50.98;100469.38;5016537;28;65214;-60
2021/08/01 07:42:41;;;;;;;;;2.75;2.75;;;;;21.58;50.47;100462.34;5017226;28;70487;-60
2021/08/01 07:45:15;;;;;;;;;5.00;2.00;;;;;21.70;50.69;100471.38;5017062;28;73614;-61
2021/08/01 07:47:41;;;;;;;;;3.25;2.25;;;;;21.81;49.91;100467.22;5016843;28;46006;-61
2021/08/01 07:50:07;;;;;;;;;3.00;3.00;;;;;21.93;49.20;100467.38;5017330;28;61093;-61
2021/08/01 07:52:32;;;;;;;;;7.25;7.25;;;;;22.04;48.98;100463.19;5017880;28;45442;-61
2021/08/01 07:54:58;;;;;;;;;4.75;4.00;;;;;22.17;48.32;100473.03;5016778;28;69282;-60
2021/08/01 07:57:27;;;;;;;;;2.25;2.00;;;;;22.27;48.61;100468.00;5017862;28;45426;-60
2021/08/01 07:59:55;;;;;;;;;3.00;2.00;;;;;22.39;47.83;100468.94;5016505;28;45284;-61
2021/08/01 08:02:21;;;;;;;;;3.00;3.00;;;;;22.55;47.60;100471.34;5018027;28;45371;-61
2021/08/01 08:04:47;;;;;;;;;2.00;2.00;;;;;22.67;46.93;100470.44;5017570;28;45316;-60
2021/08/01 08:07:12;;;;;;;;;2.50;2.50;;;;;22.79;46.42;100469.72;5017803;28;45374;-60
2021/08/01 08:09:38;;;;;;;;;2.00;2.00;;;;;22.81;46.30;100470.31;5015540;28;69447;-61
2021/08/01 08:12:03;;;;;;;;;6.75;3.00;;;;;22.85;46.89;100476.88;5016599;28;70549;-61
2021/08/01 08:14:29;;;;;;;;;5.00;2.00;;;;;22.85;46.16;100474.19;5017465;28;45348;-61
2021/08/01 08:16:54;;;;;;;;;2.75;2.00;;;;;22.87;46.60;100480.16;5016428;28;72613;-61
2021/08/01 08:19:19;;;;;;;;;5.00;3.25;;;;;22.86;46.15;100478.50;5016535;28;45332;-62
2021/08/01 08:21:45;;;;;;;;;2.00;2.00;;;;;22.85;46.10;100484.91;5017074;28;58793;-61
2021/08/01 08:24:10;;;;;;;;;3.00;2.00;;;;;22.86;45.84;100477.72;5015860;28;74584;-61
2021/08/01 08:26:36;;;;;;;;;1.50;1.50;;;;;22.93;45.74;100481.16;5016255;28;73244;-61
2021/08/01 08:29:01;;;;;;;;;2.00;2.00;;;;;23.00;45.38;100475.72;5016411;28;69303;-61
2021/08/01 08:31:26;;;;;;;;;1.75;1.75;;;;;23.08;45.15;100480.81;5016533;28;61246;-61
2021/08/01 08:33:52;;;;;;;;;4.00;4.00;;;;;23.16;44.53;100488.56;5016280;28;71570;-62
2021/08/01 08:36:17;;;;;;;;;2.00;2.00;;;;;23.20;44.93;100480.88;5016416;28;69226;-61
2021/08/01 08:38:42;;;;;;;;;3.00;3.00;;;;;23.23;44.75;100480.47;5016343;28;63456;-61
2021/08/01 08:41:14;;;;;;;;;3.50;2.00;;;;;23.23;44.55;100477.78;5017094;28;45435;-61
2021/08/01 08:43:40;;;;;;;;;3.00;2.00;;;;;23.26;44.60;100478.19;5017155;28;46075;-59
2021/08/01 08:46:08;;;;;;;;;1.00;1.00;;;;;23.31;43.59;100479.38;5016851;28;45170;-62
2021/08/01 08:48:33;;;;;;;;;3.00;1.75;;;;;23.33;43.75;100477.28;5015512;28;46240;-62
2021/08/01 08:50:58;;;;;;;;;2.00;2.00;;;;;23.31;43.60;100482.06;5013533;28;68292;-59
2021/08/01 08:53:25;;;;;;;;;3.00;2.00;;;;;23.27;44.30;100479.81;5015709;28;75471;-62
2021/08/01 08:55:51;;;;;;;;;3.00;3.00;;;;;23.24;44.29;100474.06;5015437;28;45379;-61
2021/08/01 08:58:19;;;;;;;;;4.75;3.00;;;;;23.19;43.97;100481.94;4999275;28;45419;-61
2021/08/01 09:00:45;;;;;;;;;3.00;2.00;;;;;23.23;44.64;100484.00;5015173;28;51283;-62
2021/08/01 09:03:10;;;;;;;;;4.00;2.00;;;;;23.32;43.64;100476.47;5015758;28;69493;-61
2021/08/01 09:05:35;;;;;;;;;1.25;1.25;;;;;23.40;43.74;100486.91;5014508;28;61508;-61
2021/08/01 09:08:01;;;;;;;;;3.00;2.00;;;;;23.51;43.03;100490.69;5016778;28;45931;-61
2021/08/01 09:10:27;;;;;;;;;4.25;3.00;;;;;23.63;43.49;100485.41;5016556;28;45424;-61
2021/08/01 09:12:54;;;;;;;;;3.00;3.00;;;;;23.78;43.35;100485.03;5016419;28;45796;-61
2021/08/01 09:15:24;;;;;;;;;2.00;2.00;;;;;23.95;42.86;100479.03;5016167;28;45352;-61
2021/08/01 09:17:50;;;;;;;;;2.50;2.50;;;;;24.10;42.17;100489.41;5016732;28;45339;-61
2021/08/01 09:20:22;;;;;;;;;2.00;2.00;;;;;24.18;42.37;100493.63;5016601;28;45368;-60
2021/08/01 09:23:09;;;;;;;;;2.25;1.25;;;;;24.21;41.70;100493.97;5015234;28;45425;-61
2021/08/01 09:25:42;;;;;;;;;2.00;2.00;;;;;24.26;41.56;100496.00;5016092;28;45284;-61
2021/08/01 09:28:18;;;;;;;;;3.00;3.00;;;;;24.35;41.26;100493.78;5016499;28;45376;-61
2021/08/01 09:30:53;;;;;;;;;1.25;1.25;;;;;24.45;40.97;100488.69;5016325;28;45449;-61
2021/08/01 09:33:38;;;;;;;;;2.00;2.00;;;;;24.59;40.65;100483.94;5015826;28;50292;-61
2021/08/01 09:36:05;;;;;;;;;4.50;1.50;;;;;24.65;40.66;100493.75;5016288;28;45245;-61
2021/08/01 09:38:50;;;;;;;;;2.00;2.00;;;;;24.68;40.68;100493.28;5016197;28;45320;-61
2021/08/01 09:41:19;;;;;;;;;3.75;2.00;;;;;24.71;40.04;100492.00;5015911;28;45578;-62
2021/08/01 09:43:57;;;;;;;;;1.00;1.00;;;;;24.65;40.07;100493.75;5015801;28;47012;-62
2021/08/01 09:46:52;;;;;;;;;2.00;1.00;;;;;24.58;40.09;100501.94;5013968;28;45297;-61
2021/08/01 09:49:21;;;;;;;;;2.75;2.75;;;;;24.52;40.00;100497.47;5016354;28;45318;-60
2021/08/01 09:51:49;;;;;;;;;2.00;2.00;;;;;24.47;39.73;100496.50;5016046;28;45421;-62
2021/08/01 09:54:15;;;;;;;;;1.75;1.75;;;;;24.40;39.89;100492.06;5015325;28;55288;-61
2021/08/01 09:56:59;;;;;;;;;4.50;2.00;;;;;24.36;40.19;100500.81;5015855;28;45299;-61
2021/08/01 09:59:28;;;;;;;;;3.50;2.00;;;;;24.39;40.18;100495.78;5015764;28;45531;-61
2021/08/01 10:01:58;;;;;;;;;3.00;1.25;;;;;24.50;39.22;100483.44;5016558;28;48800;-60
2021/08/01 10:04:29;;;;;;;;;2.75;1.75;;;;;24.65;38.84;100480.31;5019060;28;46098;-61
2021/08/01 10:07:02;;;;;;;;;2.00;2.00;;;;;24.84;39.21;100473.00;5019251;28;45787;-61
2021/08/01 10:09:28;;;;;;;;;2.00;2.00;;;;;25.02;38.63;100477.44;5019357;28;45272;-61
2021/08/01 10:11:53;;;;;;;;;1.50;1.50;;;;;25.25;37.61;100477.66;5018641;28;59219;-62
2021/08/01 10:14:19;;;;;;;;;2.00;2.00;;;;;25.44;37.49;100470.28;5019396;28;45982;-61
2021/08/01 10:16:44;;;;;;;;;1.25;1.25;;;;;25.60;37.51;100477.63;5018054;28;73107;-62
2021/08/01 10:19:09;;;;;;;;;1.75;1.75;;;;;25.75;36.93;100474.41;5018444;28;50387;-61
2021/08/01 10:21:35;;;;;;;;;3.50;1.25;;;;;25.84;36.51;100471.34;5016666;28;70469;-61
2021/08/01 10:24:00;;;;;;;;;1.00;1.00;;;;;25.87;36.13;100474.41;5017644;28;45455;-61
2021/08/01 10:26:34;;;;;;;;;2.00;1.00;;;;;25.84;36.28;100480.25;5000663;28;52581;-61
2021/08/01 10:29:00;;;;;;;;;3.00;2.00;;;;;25.78;36.87;100482.03;5001710;28;45449;-61
2021/08/01 10:31:30;;;;;;;;;1.00;1.00;;;;;25.70;36.96;100473.50;5001446;28;45187;-61
2021/08/01 10:34:11;;;;;;;;;2.00;2.00;;;;;25.65;37.63;100470.72;5001705;28;47221;-62
2021/08/01 10:36:36;;;;;;;;;1.00;0.75;;;;;25.66;36.92;100480.44;5018072;28;45262;-61
2021/08/01 10:39:04;;;;;;;;;1.25;1.25;;;;;25.75;36.52;100470.94;5001110;28;45350;-61
2021/08/01 10:41:34;;;;;;;;;2.50;1.00;;;;;25.89;35.56;100469.59;5017961;28;45541;-61
2021/08/01 10:44:05;;;;;;;;;2.00;2.00;;;;;26.04;35.76;100476.31;5018896;28;46250;-61
2021/08/01 10:46:32;;;;;;;;;2.00;2.00;;;;;26.17;35.45;100472.56;5018760;28;45906;-62
2021/08/01 10:48:58;;;;;;;;;3.00;3.00;;;;;26.27;35.44;100472.72;5017595;28;47204;-62
2021/08/01 10:51:26;;;;;;;;;2.00;0.50;;;;;26.37;34.94;100464.81;5017904;28;45616;-61
2021/08/01 10:53:52;;;;;;;;;3.00;1.00;;;;;26.50;35.14;100462.84;5017353;28;51896;-61
2021/08/01 10:56:35;;;;;;;;;1.50;1.00;;;;;26.58;34.45;100467.03;5016490;28;73087;-61
2021/08/01 10:59:01;;;;;;;;;0.00;0.00;;;;;26.65;34.15;100465.81;5016911;28;45239;-61
2021/08/01 11:01:26;;;;;;;;;2.75;2.00;;;;;26.74;33.87;100463.50;5018809;28;45253;-61
2021/08/01 11:04:32;;;;;;;;;1.00;0.25;;;;;26.86;33.68;100459.94;5018514;28;45340;-61
2021/08/01 11:06:57;;;;;;;;;1.00;1.00;;;;;27.00;32.87;100455.84;5018358;28;45423;-61
2021/08/01 11:09:23;;;;;;;;;1.00;1.00;;;;;27.14;33.23;100452.75;5017552;28;68186;-61
2021/08/01 11:12:19;;;;;;;;;2.00;2.00;;;;;27.28;32.85;100464.03;5017902;28;60000;-61
2021/08/01 11:14:47;;;;;;;;;3.50;3.00;;;;;27.33;32.75;100458.69;5016603;28;45579;-62
2021/08/01 11:17:12;;;;;;;;;2.00;2.00;;;;;27.31;32.25;100458.94;5017821;28;45326;-62
2021/08/01 11:19:38;;;;;;;;;7.00;5.50;;;;;27.19;32.23;100452.84;5018047;28;50529;-61
2021/08/01 11:22:03;;;;;;;;;1.00;1.00;;;;;27.09;31.91;100454.31;5017717;28;60918;-61
2021/08/01 11:24:29;;;;;;;;;2.75;2.75;;;;;27.03;32.04;100447.22;5018338;28;45392;-61